Time;durP1;ratioP1;P1;durP2;ratioP2;P2;SDS_P1;SDS_P2;PMS_P1;PMS_P2;Temp;Humidity;BMP_temperature;BMP_pressure;BME280_temperature;BME280_humidity;BME280_pressure;Samples;Min_cycle;Max_cycle;Signal;HPM_P1;HPM_P2
2022/10/03 00:02:14;;;;;;;0.10;0.10;;;11.00;99.90;;;;;;4983755;28;20263;-74
2022/10/03 00:05:07;;;;;;;0.00;0.00;;;11.00;99.90;;;;;;4976096;28;20232;-75
2022/10/03 00:07:59;;;;;;;0.10;0.10;;;11.00;99.90;;;;;;4984401;28;20208;-73
2022/10/03 00:10:38;;;;;;;0.10;0.10;;;10.90;99.90;;;;;;4975351;28;20212;-74
2022/10/03 00:13:17;;;;;;;0.10;0.10;;;11.00;99.90;;;;;;4955224;29;20237;-74
2022/10/03 00:15:53;;;;;;;0.10;0.10;;;11.00;99.90;;;;;;4966629;28;20225;-73
2022/10/03 00:18:34;;;;;;;0.10;0.10;;;11.00;99.90;;;;;;4986721;28;20243;-75
2022/10/03 00:21:28;;;;;;;0.10;0.10;;;11.00;99.90;;;;;;4952996;29;20206;-74
2022/10/03 00:24:04;;;;;;;0.10;0.10;;;10.90;99.90;;;;;;4965937;28;20231;-75
2022/10/03 00:26:45;;;;;;;0.10;0.10;;;10.80;99.90;;;;;;4971236;28;20236;-74
2022/10/03 00:29:34;;;;;;;0.10;0.10;;;10.80;99.90;;;;;;4973152;28;20212;-74
2022/10/03 00:32:12;;;;;;;0.00;0.00;;;10.80;99.90;;;;;;4979155;28;20215;-75
2022/10/03 00:34:53;;;;;;;0.03;0.03;;;10.80;99.90;;;;;;4988194;28;20213;-75
2022/10/03 00:37:30;;;;;;;0.10;0.10;;;10.80;99.90;;;;;;4981673;28;20217;-75
2022/10/03 00:40:42;;;;;;;0.05;0.05;;;10.80;99.90;;;;;;4978711;28;20211;-75
2022/10/03 00:43:42;;;;;;;0.10;0.10;;;10.80;99.90;;;;;;4971713;28;20204;-74
2022/10/03 00:46:35;;;;;;;0.10;0.10;;;10.80;99.90;;;;;;4982433;28;20224;-74
2022/10/03 00:49:29;;;;;;;0.10;0.10;;;10.80;99.90;;;;;;4988532;28;20197;-74
2022/10/03 00:52:12;;;;;;;0.10;0.10;;;10.70;99.90;;;;;;4970421;28;20575;-75
2022/10/03 00:55:00;;;;;;;0.10;0.10;;;10.70;99.90;;;;;;4959695;28;20213;-74
2022/10/03 00:57:47;;;;;;;0.10;0.10;;;10.70;99.90;;;;;;4994958;28;20574;-74
2022/10/03 01:00:20;;;;;;;0.10;0.10;;;10.70;99.90;;;;;;4987849;28;20207;-76
2022/10/03 01:03:18;;;;;;;0.10;0.10;;;10.70;99.90;;;;;;4986031;28;20205;-76
2022/10/03 01:06:06;;;;;;;0.05;0.05;;;10.70;99.90;;;;;;4977408;28;20260;-74
2022/10/03 01:08:57;;;;;;;0.10;0.10;;;10.70;99.90;;;;;;4989368;28;20198;-75
2022/10/03 01:11:38;;;;;;;0.10;0.10;;;10.70;99.90;;;;;;4980812;28;20259;-75
2022/10/03 01:14:19;;;;;;;0.10;0.10;;;10.60;99.90;;;;;;4953952;28;20206;-75
2022/10/03 01:16:59;;;;;;;0.08;0.08;;;10.60;99.90;;;;;;4985747;28;20228;-75
2022/10/03 01:19:59;;;;;;;0.10;0.10;;;10.60;99.90;;;;;;4996606;28;20290;-75
2022/10/03 01:22:52;;;;;;;0.10;0.10;;;10.60;99.90;;;;;;4974981;28;20225;-76
2022/10/03 01:25:36;;;;;;;0.10;0.10;;;10.50;99.90;;;;;;4977603;28;20221;-77
2022/10/03 01:31:18;;;;;;;0.00;0.00;;;10.50;99.90;;;;;;4914914;29;20207;-75
2022/10/03 01:33:52;;;;;;;0.10;0.10;;;10.50;99.90;;;;;;4966959;28;20221;-75
2022/10/03 01:36:28;;;;;;;0.10;0.10;;;10.50;99.90;;;;;;4980608;28;20236;-76
2022/10/03 01:39:01;;;;;;;0.10;0.10;;;10.50;99.90;;;;;;4982976;28;20223;-76
2022/10/03 01:41:35;;;;;;;0.10;0.10;;;10.50;99.90;;;;;;4974868;28;20201;-76
2022/10/03 01:44:15;;;;;;;0.10;0.10;;;10.50;99.90;;;;;;4975356;28;20232;-76
2022/10/03 01:46:48;;;;;;;0.10;0.10;;;10.50;99.90;;;;;;4993088;28;20243;-75
2022/10/03 01:49:22;;;;;;;0.03;0.03;;;10.50;99.90;;;;;;4975162;28;20201;-75
2022/10/03 01:51:59;;;;;;;0.00;0.00;;;10.50;99.90;;;;;;4984236;28;20211;-76
2022/10/03 01:54:35;;;;;;;0.10;0.10;;;10.50;99.90;;;;;;4977898;28;20270;-76
2022/10/03 01:57:12;;;;;;;0.10;0.10;;;10.40;99.90;;;;;;4984198;28;20228;-77
2022/10/03 01:59:49;;;;;;;0.10;0.10;;;10.50;99.90;;;;;;4964362;28;20228;-75
2022/10/03 02:02:28;;;;;;;0.00;0.00;;;10.50;99.90;;;;;;4975731;28;20226;-75
2022/10/03 02:05:06;;;;;;;0.10;0.10;;;10.50;99.90;;;;;;4970926;28;20239;-76
2022/10/03 02:07:43;;;;;;;0.10;0.10;;;10.50;99.90;;;;;;4952955;28;20209;-74
2022/10/03 02:10:23;;;;;;;0.08;0.08;;;10.50;99.90;;;;;;4980701;28;20266;-75
2022/10/03 02:13:00;;;;;;;0.10;0.10;;;10.50;99.90;;;;;;4978772;28;20287;-74
2022/10/03 02:15:41;;;;;;;0.10;0.10;;;10.50;99.90;;;;;;4976716;28;20237;-76
2022/10/03 02:18:14;;;;;;;0.10;0.10;;;10.50;99.90;;;;;;4942149;28;20708;-76
2022/10/03 02:20:48;;;;;;;0.10;0.10;;;10.50;99.90;;;;;;4987557;28;20204;-75
2022/10/03 02:23:36;;;;;;;0.10;0.10;;;10.50;99.90;;;;;;4984159;28;20283;-76
2022/10/03 02:26:31;;;;;;;0.00;0.00;;;10.60;99.90;;;;;;4988978;28;20232;-76
2022/10/03 02:29:37;;;;;;;0.10;0.10;;;10.60;99.90;;;;;;4973056;28;20201;-75
2022/10/03 02:32:41;;;;;;;0.00;0.00;;;10.60;99.90;;;;;;4941741;28;20708;-75
2022/10/03 02:35:57;;;;;;;0.00;0.00;;;10.60;99.90;;;;;;4947511;28;20270;-75
2022/10/03 02:38:41;;;;;;;0.08;0.08;;;10.70;99.90;;;;;;4979355;28;20220;-76
2022/10/03 02:41:20;;;;;;;0.10;0.10;;;10.60;99.90;;;;;;4963444;28;20197;-75
2022/10/03 02:44:19;;;;;;;0.05;0.05;;;10.70;99.90;;;;;;4979921;28;20698;-75
2022/10/03 02:47:22;;;;;;;0.10;0.10;;;10.70;99.90;;;;;;4982757;28;20228;-76
2022/10/03 02:50:27;;;;;;;0.10;0.10;;;10.60;99.90;;;;;;4987515;28;20191;-75
2022/10/03 02:53:32;;;;;;;0.10;0.10;;;10.60;99.90;;;;;;4974358;28;20201;-76
2022/10/03 02:56:30;;;;;;;0.08;0.08;;;10.60;99.90;;;;;;4972396;28;20235;-76
2022/10/03 02:59:30;;;;;;;0.10;0.10;;;10.70;99.90;;;;;;4953063;28;20272;-75
2022/10/03 03:02:34;;;;;;;0.00;0.00;;;10.60;99.90;;;;;;4967787;28;20275;-75
2022/10/03 03:05:33;;;;;;;0.03;0.03;;;10.60;99.90;;;;;;4936584;28;20292;-75
2022/10/03 03:08:35;;;;;;;0.10;0.10;;;10.70;99.90;;;;;;4964856;28;20212;-77
2022/10/03 03:11:18;;;;;;;0.10;0.10;;;10.70;99.90;;;;;;4977866;28;20223;-76
2022/10/03 03:14:27;;;;;;;0.10;0.10;;;10.80;99.90;;;;;;4988053;28;20239;-76
2022/10/03 03:17:07;;;;;;;0.10;0.10;;;10.80;99.90;;;;;;4985532;28;20216;-76
2022/10/03 03:19:58;;;;;;;0.10;0.10;;;10.80;99.90;;;;;;4973400;28;20224;-78
2022/10/03 03:22:40;;;;;;;0.10;0.10;;;10.80;99.90;;;;;;4972371;28;20221;-76
2022/10/03 03:25:26;;;;;;;0.10;0.10;;;10.90;99.90;;;;;;4979163;28;20196;-77
2022/10/03 03:28:03;;;;;;;0.10;0.10;;;10.80;99.90;;;;;;4979911;28;20201;-77
2022/10/03 03:30:44;;;;;;;0.10;0.10;;;10.90;99.90;;;;;;4956923;28;20201;-76
2022/10/03 03:33:22;;;;;;;0.10;0.10;;;10.90;99.90;;;;;;4965661;28;20240;-75
2022/10/03 03:36:01;;;;;;;0.10;0.10;;;10.80;99.90;;;;;;4975445;28;20263;-76
2022/10/03 03:38:34;;;;;;;0.10;0.10;;;10.80;99.90;;;;;;4986553;28;20199;-76
2022/10/03 03:41:24;;;;;;;0.10;0.10;;;10.80;99.90;;;;;;4951912;28;20257;-77
2022/10/03 03:44:19;;;;;;;0.10;0.10;;;10.80;99.90;;;;;;4979926;28;20570;-77
2022/10/03 03:47:09;;;;;;;0.10;0.10;;;10.80;99.90;;;;;;4963058;28;20744;-77
2022/10/03 03:49:57;;;;;;;0.10;0.10;;;10.80;99.90;;;;;;4977941;28;20606;-77
2022/10/03 03:52:44;;;;;;;0.10;0.10;;;10.70;99.90;;;;;;4987534;28;20208;-77
2022/10/03 03:55:32;;;;;;;0.10;0.10;;;10.80;99.90;;;;;;4971445;28;20829;-75
2022/10/03 03:58:13;;;;;;;0.10;0.10;;;10.80;99.90;;;;;;4971072;28;20255;-76
2022/10/03 04:01:03;;;;;;;0.10;0.10;;;10.70;99.90;;;;;;4961541;28;20216;-75
2022/10/03 04:03:46;;;;;;;0.00;0.00;;;10.80;99.90;;;;;;4995572;28;20205;-75
2022/10/03 04:06:34;;;;;;;0.10;0.10;;;10.80;99.90;;;;;;4979797;28;20224;-75
2022/10/03 04:09:38;;;;;;;0.10;0.10;;;10.80;99.90;;;;;;4977840;28;20660;-75
2022/10/03 04:12:14;;;;;;;0.10;0.10;;;10.70;99.90;;;;;;4954850;29;20689;-75
2022/10/03 04:15:00;;;;;;;0.10;0.10;;;10.70;99.90;;;;;;4985441;28;20264;-75
2022/10/03 04:20:53;;;;;;;0.10;0.10;;;10.80;99.90;;;;;;4957017;28;20224;-76
2022/10/03 04:23:38;;;;;;;0.10;0.10;;;10.70;99.90;;;;;;4961930;28;20206;-75
2022/10/03 04:26:27;;;;;;;0.10;0.10;;;10.70;99.90;;;;;;4972841;28;20232;-75
2022/10/03 04:29:20;;;;;;;0.10;0.10;;;10.80;99.90;;;;;;4979797;28;20680;-76
2022/10/03 04:32:01;;;;;;;0.10;0.10;;;10.80;99.90;;;;;;4956453;28;20217;-75
2022/10/03 04:34:41;;;;;;;0.10;0.10;;;10.80;99.90;;;;;;4979977;28;20259;-77
2022/10/03 04:37:23;;;;;;;0.10;0.10;;;10.80;99.90;;;;;;4981116;28;20216;-76
2022/10/03 04:40:02;;;;;;;0.10;0.10;;;10.80;99.90;;;;;;4990393;28;20688;-75
2022/10/03 04:42:45;;;;;;;0.10;0.10;;;10.80;99.90;;;;;;4975239;28;20201;-76
2022/10/03 04:45:31;;;;;;;0.00;0.00;;;10.80;99.90;;;;;;4974562;28;20220;-75
2022/10/03 04:48:09;;;;;;;0.10;0.10;;;10.80;99.90;;;;;;4982706;28;20225;-75
2022/10/03 04:50:43;;;;;;;0.00;0.00;;;10.80;99.90;;;;;;4994883;28;20204;-75
2022/10/03 04:53:22;;;;;;;0.10;0.10;;;10.80;99.90;;;;;;4958679;28;20661;-75
2022/10/03 04:55:56;;;;;;;0.10;0.10;;;10.70;99.90;;;;;;4989189;28;20599;-75
2022/10/03 04:58:35;;;;;;;0.00;0.00;;;10.70;99.90;;;;;;4959652;28;20213;-76
2022/10/03 05:01:14;;;;;;;0.10;0.10;;;10.80;99.90;;;;;;4974198;28;20765;-76
2022/10/03 05:03:53;;;;;;;0.10;0.10;;;10.80;99.90;;;;;;4975496;28;20201;-75
2022/10/03 05:06:35;;;;;;;0.10;0.10;;;10.80;99.90;;;;;;4968627;28;20236;-75
2022/10/03 05:09:20;;;;;;;0.10;0.10;;;10.80;99.90;;;;;;4980752;28;20243;-75
2022/10/03 05:11:58;;;;;;;0.10;0.10;;;10.80;99.90;;;;;;4976654;28;20668;-77
2022/10/03 05:14:37;;;;;;;0.10;0.10;;;10.80;99.90;;;;;;4973809;28;20200;-76
2022/10/03 05:17:18;;;;;;;0.10;0.10;;;10.80;99.90;;;;;;4971349;28;20220;-76
2022/10/03 05:20:14;;;;;;;0.10;0.10;;;10.90;99.90;;;;;;4975854;28;20285;-75
2022/10/03 05:22:51;;;;;;;0.10;0.10;;;10.80;99.90;;;;;;4975884;28;20646;-76
2022/10/03 05:25:28;;;;;;;0.10;0.10;;;10.80;99.90;;;;;;4975813;28;20224;-76
2022/10/03 05:28:06;;;;;;;0.10;0.10;;;10.90;99.90;;;;;;4982068;28;20200;-78
2022/10/03 05:30:43;;;;;;;0.10;0.10;;;11.00;99.90;;;;;;4993752;28;20200;-76
2022/10/03 05:33:21;;;;;;;0.00;0.00;;;10.90;99.90;;;;;;4985610;28;20550;-77
2022/10/03 05:36:04;;;;;;;0.10;0.10;;;10.90;99.90;;;;;;4989018;28;20220;-77
2022/10/03 05:39:02;;;;;;;0.00;0.00;;;10.90;99.90;;;;;;4989375;28;20208;-78
2022/10/03 05:41:34;;;;;;;0.10;0.10;;;11.00;99.90;;;;;;4945316;28;20727;-77
2022/10/03 05:44:05;;;;;;;0.10;0.10;;;10.90;99.90;;;;;;4957701;28;20197;-76
2022/10/03 05:46:50;;;;;;;0.10;0.10;;;11.00;99.90;;;;;;4986878;28;20240;-76
2022/10/03 05:49:52;;;;;;;0.10;0.10;;;10.90;99.90;;;;;;4993129;28;20263;-75
2022/10/03 05:52:46;;;;;;;0.10;0.10;;;11.00;99.90;;;;;;4984783;28;20610;-75
2022/10/03 05:55:29;;;;;;;0.00;0.00;;;11.00;99.90;;;;;;4978125;28;20227;-75
2022/10/03 05:58:34;;;;;;;0.00;0.00;;;11.00;99.90;;;;;;4979331;28;20201;-74
2022/10/03 06:01:28;;;;;;;0.03;0.03;;;11.10;99.90;;;;;;4962617;28;20228;-75
2022/10/03 06:04:21;;;;;;;0.10;0.10;;;11.10;99.90;;;;;;4985596;28;20566;-77
2022/10/03 06:07:00;;;;;;;0.10;0.10;;;11.10;99.90;;;;;;4976866;28;20224;-76
2022/10/03 06:10:03;;;;;;;0.00;0.00;;;11.10;99.90;;;;;;4980974;28;20204;-77
2022/10/03 06:12:41;;;;;;;0.10;0.10;;;11.10;99.90;;;;;;4960956;28;20215;-77
2022/10/03 06:15:38;;;;;;;0.10;0.10;;;11.10;99.90;;;;;;4973663;28;20672;-77
2022/10/03 06:18:41;;;;;;;0.10;0.10;;;11.10;99.90;;;;;;4971156;28;20209;-76
2022/10/03 06:21:52;;;;;;;0.10;0.10;;;11.20;99.90;;;;;;4954222;28;20232;-76
2022/10/03 06:24:48;;;;;;;0.10;0.10;;;11.10;99.90;;;;;;4977919;28;20215;-75
2022/10/03 06:27:53;;;;;;;0.00;0.00;;;11.20;99.90;;;;;;4980745;28;20232;-75
2022/10/03 06:30:30;;;;;;;0.10;0.10;;;11.20;99.90;;;;;;4973401;28;20289;-75
2022/10/03 06:33:52;;;;;;;0.10;0.10;;;11.20;99.90;;;;;;4970942;28;20215;-75
2022/10/03 06:36:49;;;;;;;0.10;0.10;;;11.20;99.90;;;;;;4978806;28;20282;-75
2022/10/03 06:39:52;;;;;;;0.10;0.10;;;11.20;99.90;;;;;;4968742;28;20686;-75
2022/10/03 06:42:51;;;;;;;0.10;0.10;;;11.20;99.90;;;;;;4980677;28;20188;-75
2022/10/03 06:45:53;;;;;;;0.10;0.10;;;11.10;99.90;;;;;;4986895;28;20221;-75
2022/10/03 06:49:02;;;;;;;0.10;0.10;;;11.20;99.90;;;;;;4944047;28;20204;-75
2022/10/03 06:51:56;;;;;;;0.10;0.10;;;11.10;99.90;;;;;;4974261;28;20205;-75
2022/10/03 06:55:03;;;;;;;0.10;0.10;;;11.00;99.90;;;;;;4970009;28;20273;-75
2022/10/03 06:58:06;;;;;;;0.10;0.10;;;11.00;99.90;;;;;;4943151;28;20212;-77
2022/10/03 07:00:53;;;;;;;0.10;0.10;;;11.00;99.90;;;;;;4977971;28;20612;-75
2022/10/03 07:03:56;;;;;;;0.00;0.00;;;11.00;99.90;;;;;;4972760;28;20557;-75
2022/10/03 07:07:06;;;;;;;0.10;0.10;;;11.10;99.90;;;;;;4954039;28;20236;-75
2022/10/03 07:10:12;;;;;;;0.00;0.00;;;11.00;99.90;;;;;;4953479;28;20228;-75
2022/10/03 07:13:06;;;;;;;0.10;0.10;;;11.10;99.90;;;;;;4957273;28;20278;-75
2022/10/03 07:16:17;;;;;;;0.10;0.10;;;11.00;99.90;;;;;;4981033;28;20276;-75
2022/10/03 07:19:08;;;;;;;0.00;0.00;;;11.10;99.90;;;;;;4974570;28;20219;-75
2022/10/03 07:22:31;;;;;;;0.10;0.10;;;11.00;99.90;;;;;;4975698;28;20227;-75
2022/10/03 07:25:37;;;;;;;0.10;0.10;;;11.10;99.90;;;;;;4977973;28;20205;-75
2022/10/03 07:28:32;;;;;;;0.10;0.10;;;11.20;99.90;;;;;;4977706;28;20246;-75
2022/10/03 07:31:08;;;;;;;0.00;0.00;;;11.30;99.90;;;;;;4980276;28;20221;-75
2022/10/03 07:34:31;;;;;;;0.10;0.10;;;11.30;99.90;;;;;;4982490;28;20710;-75
2022/10/03 07:40:25;;;;;;;0.00;0.00;;;11.40;99.90;;;;;;4975281;28;20664;-75
2022/10/03 07:43:24;;;;;;;0.10;0.10;;;11.50;99.90;;;;;;4988024;28;20243;-75
2022/10/03 07:46:27;;;;;;;0.10;0.10;;;11.60;99.90;;;;;;4980557;28;20243;-75
2022/10/03 07:49:18;;;;;;;0.10;0.10;;;11.60;99.90;;;;;;4978001;28;20240;-75
2022/10/03 07:52:04;;;;;;;0.10;0.10;;;11.50;99.90;;;;;;4978018;28;20197;-75
2022/10/03 07:54:59;;;;;;;0.10;0.10;;;11.60;99.90;;;;;;4977265;28;20204;-75
2022/10/03 07:57:50;;;;;;;0.10;0.10;;;11.60;99.90;;;;;;4975914;28;20311;-75
2022/10/03 08:00:23;;;;;;;0.10;0.10;;;11.70;99.90;;;;;;4973816;28;20680;-76
2022/10/03 08:03:23;;;;;;;0.00;0.00;;;11.60;99.90;;;;;;4976152;28;20251;-76
2022/10/03 08:06:15;;;;;;;0.10;0.10;;;11.60;99.90;;;;;;4973408;28;20264;-75
2022/10/03 08:09:28;;;;;;;0.10;0.10;;;11.70;99.90;;;;;;4976486;28;20200;-75
2022/10/03 08:12:21;;;;;;;0.10;0.10;;;11.80;99.90;;;;;;4984607;28;20192;-75
2022/10/03 08:15:03;;;;;;;0.10;0.10;;;12.00;99.90;;;;;;4993453;28;20208;-76
2022/10/03 08:18:10;;;;;;;0.10;0.10;;;12.00;99.90;;;;;;4995111;28;20251;-76
2022/10/03 08:20:55;;;;;;;0.10;0.10;;;12.00;99.90;;;;;;4995361;28;20559;-76
2022/10/03 08:24:01;;;;;;;0.10;0.10;;;12.10;99.90;;;;;;4995121;28;20258;-76
2022/10/03 08:26:56;;;;;;;0.10;0.10;;;12.10;99.90;;;;;;4983712;28;20274;-76
2022/10/03 08:29:46;;;;;;;0.10;0.10;;;12.10;99.90;;;;;;4946481;29;20221;-76
2022/10/03 08:32:47;;;;;;;0.10;0.10;;;12.10;99.90;;;;;;4955729;29;20194;-75
2022/10/03 08:35:49;;;;;;;0.10;0.10;;;12.20;99.90;;;;;;4956261;29;20552;-76
2022/10/03 08:39:07;;;;;;;0.10;0.10;;;12.20;99.90;;;;;;4931768;29;20221;-76
2022/10/03 08:42:11;;;;;;;0.10;0.10;;;12.30;99.90;;;;;;4899911;29;20655;-76
2022/10/03 08:45:12;;;;;;;0.10;0.10;;;12.30;99.90;;;;;;4976074;28;20211;-76
2022/10/03 08:48:07;;;;;;;0.10;0.10;;;12.40;99.90;;;;;;4975516;28;20226;-76
2022/10/03 08:50:56;;;;;;;0.10;0.10;;;12.40;99.90;;;;;;4957906;28;20216;-76
2022/10/03 08:53:55;;;;;;;0.05;0.05;;;12.30;99.90;;;;;;4974978;28;20201;-76
2022/10/03 08:56:35;;;;;;;0.10;0.10;;;12.40;99.90;;;;;;4974881;28;20276;-76
2022/10/03 08:59:46;;;;;;;0.10;0.10;;;12.20;99.90;;;;;;4973841;28;20236;-76
2022/10/03 09:02:51;;;;;;;0.10;0.10;;;12.30;99.90;;;;;;4977392;28;20267;-76
2022/10/03 09:06:08;;;;;;;0.10;0.10;;;12.50;99.90;;;;;;4974204;28;20228;-76
2022/10/03 09:09:05;;;;;;;0.00;0.00;;;12.50;99.90;;;;;;4976342;28;20201;-75
2022/10/03 09:12:06;;;;;;;0.10;0.10;;;12.50;99.90;;;;;;4994663;23;20244;-77
2022/10/03 09:14:55;;;;;;;0.10;0.10;;;12.60;99.90;;;;;;4960966;28;20202;-77
2022/10/03 09:18:00;;;;;;;0.10;0.10;;;12.70;99.90;;;;;;4956194;29;20566;-77
2022/10/03 09:21:18;;;;;;;0.00;0.00;;;12.70;99.90;;;;;;4955793;28;20644;-76
2022/10/03 09:24:27;;;;;;;0.10;0.10;;;12.60;99.90;;;;;;4980643;28;20204;-75
2022/10/03 09:27:32;;;;;;;0.10;0.10;;;12.60;99.90;;;;;;4994374;28;20278;-76
2022/10/03 09:30:21;;;;;;;0.10;0.10;;;12.60;99.90;;;;;;4994822;28;20258;-76
2022/10/03 09:33:43;;;;;;;0.10;0.10;;;12.60;99.90;;;;;;4995144;28;20196;-76
2022/10/03 09:36:34;;;;;;;0.10;0.10;;;12.70;99.90;;;;;;4992722;28;20267;-76
2022/10/03 09:39:21;;;;;;;0.10;0.10;;;12.80;99.90;;;;;;4990934;28;20200;-76
2022/10/03 09:42:19;;;;;;;0.10;0.10;;;13.00;99.90;;;;;;4981672;28;20642;-78
2022/10/03 09:45:20;;;;;;;0.10;0.10;;;13.00;99.90;;;;;;4992076;28;20204;-76
2022/10/03 09:48:31;;;;;;;0.00;0.00;;;13.10;99.90;;;;;;4970197;28;20706;-75
2022/10/03 09:51:21;;;;;;;0.10;0.10;;;13.20;99.90;;;;;;4973519;28;20225;-76
2022/10/03 09:54:21;;;;;;;0.10;0.10;;;13.20;99.90;;;;;;4974940;28;20178;-76
2022/10/03 09:57:20;;;;;;;0.10;0.10;;;13.40;99.90;;;;;;4974228;28;20193;-76
2022/10/03 10:00:09;;;;;;;0.10;0.10;;;13.50;99.90;;;;;;4973867;28;20240;-77
2022/10/03 10:03:07;;;;;;;0.10;0.10;;;13.50;99.90;;;;;;4973515;28;20626;-77
2022/10/03 10:05:56;;;;;;;0.00;0.00;;;13.60;99.90;;;;;;4966802;28;20256;-76
2022/10/03 10:08:43;;;;;;;0.10;0.10;;;13.70;99.90;;;;;;4994703;28;20196;-76
2022/10/03 10:11:21;;;;;;;0.00;0.00;;;13.60;99.90;;;;;;4994226;28;20634;-77
2022/10/03 10:14:34;;;;;;;0.10;0.10;;;13.70;99.90;;;;;;4994148;28;20216;-75
2022/10/03 10:17:39;;;;;;;0.10;0.10;;;13.70;99.90;;;;;;4993586;28;20207;-76
2022/10/03 10:20:39;;;;;;;0.10;0.10;;;13.70;99.90;;;;;;4993536;28;20737;-76
2022/10/03 10:23:31;;;;;;;0.10;0.10;;;13.80;99.90;;;;;;4985047;28;20771;-76
2022/10/03 10:26:29;;;;;;;0.10;0.10;;;13.80;99.90;;;;;;4969488;28;20255;-76
2022/10/03 10:29:25;;;;;;;0.10;0.10;;;13.80;99.90;;;;;;4974322;28;20197;-75
2022/10/03 10:32:29;;;;;;;0.10;0.10;;;13.80;99.90;;;;;;4973916;28;20204;-76
2022/10/03 10:35:39;;;;;;;0.10;0.10;;;13.80;99.90;;;;;;4974162;28;20189;-76
2022/10/03 10:38:25;;;;;;;0.00;0.00;;;13.60;99.90;;;;;;4973770;28;20197;-77
2022/10/03 10:41:38;;;;;;;0.10;0.10;;;13.60;99.90;;;;;;4965415;28;20791;-76
2022/10/03 10:44:50;;;;;;;0.10;0.10;;;13.70;99.90;;;;;;4986898;28;20220;-76
2022/10/03 10:48:10;;;;;;;0.10;0.10;;;13.50;99.90;;;;;;4992261;28;20262;-77
2022/10/03 10:51:20;;;;;;;0.10;0.10;;;13.50;99.90;;;;;;4992692;28;20208;-76
2022/10/03 10:54:25;;;;;;;0.05;0.05;;;13.50;99.90;;;;;;4993517;28;20243;-76
2022/10/03 10:57:24;;;;;;;0.10;0.10;;;13.60;99.90;;;;;;4993435;28;20192;-76
2022/10/03 11:00:22;;;;;;;0.10;0.10;;;13.50;99.90;;;;;;4941177;29;20213;-77
2022/10/03 11:03:23;;;;;;;0.10;0.10;;;13.50;99.90;;;;;;4957230;29;20583;-77
2022/10/03 11:06:31;;;;;;;0.10;0.10;;;13.60;99.90;;;;;;4976578;28;20228;-75
2022/10/03 11:09:24;;;;;;;0.08;0.08;;;13.80;99.90;;;;;;4961542;28;20213;-77
2022/10/03 11:12:28;;;;;;;0.10;0.10;;;13.90;99.90;;;;;;4955534;28;20632;-75
2022/10/03 11:15:29;;;;;;;0.00;0.00;;;14.00;99.90;;;;;;4954687;29;20252;-76
2022/10/03 11:18:34;;;;;;;0.00;0.00;;;14.10;99.90;;;;;;4952137;29;20216;-75
2022/10/03 11:21:51;;;;;;;0.10;0.10;;;13.90;99.90;;;;;;4925431;28;20233;-77
2022/10/03 11:24:52;;;;;;;0.00;0.00;;;14.00;99.90;;;;;;4980130;28;20217;-76
2022/10/03 11:27:55;;;;;;;0.00;0.00;;;14.40;99.90;;;;;;4970912;29;20201;-79
2022/10/03 11:30:46;;;;;;;0.00;0.00;;;14.80;99.90;;;;;;4971865;28;20624;-76
2022/10/03 11:34:15;;;;;;;0.00;0.00;;;15.10;99.90;;;;;;4939747;29;20276;-75
2022/10/03 11:37:13;;;;;;;0.00;0.00;;;15.70;99.90;;;;;;4954586;29;20197;-76
2022/10/03 11:39:47;;;;;;;0.00;0.00;;;15.70;99.90;;;;;;4954205;29;20692;-77
2022/10/03 11:42:27;;;;;;;0.00;0.00;;;15.60;99.90;;;;;;4973005;28;20224;-76
2022/10/03 11:44:58;;;;;;;0.00;0.00;;;15.70;99.90;;;;;;4973451;28;20271;-77
2022/10/03 11:48:01;;;;;;;0.00;0.00;;;16.10;99.90;;;;;;4973045;28;20193;-76
2022/10/03 11:50:52;;;;;;;0.00;0.00;;;16.10;99.90;;;;;;4973385;28;20632;-75
2022/10/03 11:53:41;;;;;;;0.08;0.08;;;15.90;99.90;;;;;;4969942;28;20256;-76
2022/10/03 11:56:21;;;;;;;0.00;0.00;;;16.10;99.90;;;;;;4972949;28;20201;-76
2022/10/03 11:58:59;;;;;;;0.00;0.00;;;16.00;99.90;;;;;;4982811;28;20259;-76
2022/10/03 12:01:41;;;;;;;0.00;0.00;;;16.30;99.90;;;;;;4969812;28;20232;-77
2022/10/03 12:04:18;;;;;;;0.00;0.00;;;16.10;99.90;;;;;;4971680;28;20221;-76
2022/10/03 12:10:18;;;;;;;0.00;0.00;;;15.90;99.90;;;;;;4985548;28;20204;-76
2022/10/03 12:12:50;;;;;;;0.00;0.00;;;15.70;99.90;;;;;;4993311;28;20193;-77
2022/10/03 12:15:30;;;;;;;0.00;0.00;;;15.50;99.90;;;;;;4999622;28;20196;-77
2022/10/03 12:18:05;;;;;;;0.00;0.00;;;15.70;99.90;;;;;;4992214;28;20687;-76
2022/10/03 12:20:56;;;;;;;0.00;0.00;;;15.90;99.90;;;;;;4995311;28;20270;-76
2022/10/03 12:23:40;;;;;;;0.00;0.00;;;16.20;99.90;;;;;;4996040;28;20497;-76
2022/10/03 12:26:17;;;;;;;0.00;0.00;;;16.20;99.90;;;;;;4980706;28;20299;-75
2022/10/03 12:28:51;;;;;;;0.00;0.00;;;16.30;99.90;;;;;;4987859;28;20243;-76
2022/10/03 12:31:25;;;;;;;0.00;0.00;;;16.40;99.90;;;;;;4976450;28;20711;-76
2022/10/03 12:33:58;;;;;;;0.00;0.00;;;16.10;99.90;;;;;;4976020;28;20199;-76
2022/10/03 12:36:32;;;;;;;0.00;0.00;;;16.20;99.90;;;;;;4975934;28;20193;-75
2022/10/03 12:39:18;;;;;;;0.00;0.00;;;16.50;99.90;;;;;;4976302;28;20560;-76
2022/10/03 12:42:15;;;;;;;0.00;0.00;;;16.60;99.90;;;;;;4976823;28;20660;-77
2022/10/03 12:44:52;;;;;;;0.00;0.00;;;16.60;99.90;;;;;;4971519;28;20240;-76
2022/10/03 12:47:44;;;;;;;0.00;0.00;;;16.60;99.90;;;;;;4984300;28;20200;-76
2022/10/03 12:50:43;;;;;;;0.00;0.00;;;16.60;99.90;;;;;;4958249;28;20229;-77
2022/10/03 12:56:49;;;;;;;0.00;0.00;;;16.60;99.90;;;;;;4992141;28;20264;-75
2022/10/03 12:59:31;;;;;;;0.00;0.00;;;16.40;99.90;;;;;;4993834;28;20613;-77
2022/10/03 13:02:19;;;;;;;0.00;0.00;;;16.10;99.90;;;;;;4988778;28;20279;-75
2022/10/03 13:05:07;;;;;;;0.00;0.00;;;15.90;99.90;;;;;;4991639;28;20225;-75
2022/10/03 13:08:09;;;;;;;0.00;0.00;;;15.90;99.90;;;;;;4979183;28;20664;-75
2022/10/03 13:10:41;;;;;;;0.00;0.00;;;15.90;99.90;;;;;;4981289;28;20259;-76
2022/10/03 13:13:30;;;;;;;0.00;0.00;;;15.90;99.90;;;;;;4995651;28;20214;-75
2022/10/03 13:16:21;;;;;;;0.00;0.00;;;15.90;99.90;;;;;;4981184;28;20621;-76
2022/10/03 13:18:58;;;;;;;0.00;0.00;;;16.00;99.90;;;;;;4977714;28;20654;-75
2022/10/03 13:21:53;;;;;;;0.00;0.00;;;15.70;99.90;;;;;;4994532;28;20216;-76
2022/10/03 13:24:31;;;;;;;0.00;0.00;;;15.60;99.90;;;;;;4982975;28;20295;-75
2022/10/03 13:27:11;;;;;;;0.00;0.00;;;15.60;99.90;;;;;;4984442;28;20215;-76
2022/10/03 13:29:47;;;;;;;0.00;0.00;;;15.60;99.90;;;;;;4995591;28;20717;-76
2022/10/03 13:32:23;;;;;;;0.00;0.00;;;15.60;99.90;;;;;;4994163;28;20212;-75
2022/10/03 13:38:15;;;;;;;0.00;0.00;;;15.30;99.90;;;;;;4984266;28;20282;-75
2022/10/03 13:40:53;;;;;;;0.00;0.00;;;15.00;99.90;;;;;;4971046;28;20220;-75
2022/10/03 13:43:35;;;;;;;0.00;0.00;;;14.90;99.90;;;;;;4976944;28;20285;-74
2022/10/03 13:46:15;;;;;;;0.00;0.00;;;14.70;99.90;;;;;;4972300;28;20208;-75
2022/10/03 13:48:53;;;;;;;0.00;0.00;;;14.70;99.90;;;;;;4990396;28;20200;-76
2022/10/03 13:51:31;;;;;;;0.10;0.10;;;14.80;99.90;;;;;;4971184;28;20723;-76
2022/10/03 13:54:04;;;;;;;0.00;0.00;;;14.70;99.90;;;;;;4966410;28;20561;-76
2022/10/03 13:56:52;;;;;;;0.10;0.10;;;14.60;99.90;;;;;;4978294;28;20247;-77
2022/10/03 13:59:47;;;;;;;0.00;0.00;;;14.70;99.90;;;;;;4969442;28;20208;-75
2022/10/03 14:02:48;;;;;;;0.00;0.00;;;14.60;99.90;;;;;;4981699;28;20639;-76
2022/10/03 14:05:54;;;;;;;0.00;0.00;;;14.70;99.90;;;;;;4963475;28;20252;-76
2022/10/03 14:08:45;;;;;;;0.00;0.00;;;14.70;99.90;;;;;;4960004;28;20657;-77
2022/10/03 14:11:24;;;;;;;0.00;0.00;;;14.80;99.90;;;;;;4956287;28;20713;-76
2022/10/03 14:14:09;;;;;;;0.00;0.00;;;14.80;99.90;;;;;;4974387;28;20203;-75
2022/10/03 14:16:45;;;;;;;0.00;0.00;;;14.70;99.90;;;;;;4967773;28;20205;-76
2022/10/03 14:19:22;;;;;;;0.00;0.00;;;14.70;99.90;;;;;;4975897;28;20671;-75
2022/10/03 14:22:00;;;;;;;0.00;0.00;;;14.70;99.90;;;;;;4967320;28;20730;-75
2022/10/03 14:24:41;;;;;;;0.00;0.00;;;14.70;99.90;;;;;;4980654;28;20220;-77
2022/10/03 14:27:36;;;;;;;0.00;0.00;;;14.70;99.90;;;;;;4965228;28;20669;-74
2022/10/03 14:30:09;;;;;;;0.00;0.00;;;14.70;99.90;;;;;;4965445;28;20229;-75
2022/10/03 14:32:45;;;;;;;0.00;0.00;;;14.70;99.90;;;;;;4960109;28;20263;-77
2022/10/03 14:35:33;;;;;;;0.00;0.00;;;14.70;99.90;;;;;;4969064;28;20196;-76
2022/10/03 14:38:14;;;;;;;0.00;0.00;;;14.60;99.90;;;;;;4977777;28;20188;-77
2022/10/03 14:40:47;;;;;;;0.00;0.00;;;14.60;99.90;;;;;;4991836;28;20224;-75
2022/10/03 14:43:30;;;;;;;0.00;0.00;;;14.70;99.90;;;;;;4990718;28;20277;-75
2022/10/03 14:46:01;;;;;;;0.00;0.00;;;14.60;99.90;;;;;;4975798;28;20216;-76
2022/10/03 14:48:36;;;;;;;0.00;0.00;;;14.60;99.90;;;;;;4973075;28;20229;-75
2022/10/03 14:51:13;;;;;;;0.08;0.08;;;14.40;99.90;;;;;;4956569;28;20223;-75
2022/10/03 14:53:54;;;;;;;0.00;0.00;;;14.40;99.90;;;;;;4971956;28;20204;-75
2022/10/03 14:56:23;;;;;;;0.00;0.00;;;14.20;99.90;;;;;;4969796;28;20200;-76
2022/10/03 14:58:53;;;;;;;0.10;0.10;;;14.20;99.90;;;;;;4976332;28;20591;-75
2022/10/03 15:01:23;;;;;;;0.00;0.00;;;14.20;99.90;;;;;;4952552;28;20229;-75
2022/10/03 15:04:00;;;;;;;0.10;0.10;;;14.20;99.90;;;;;;4967470;28;20272;-75